Time;durP1;ratioP1;P1;durP2;ratioP2;P2;SDS_P1;SDS_P2;PMS_P1;PMS_P2;Temp;Humidity;BMP_temperature;BMP_pressure;BME280_temperature;BME280_humidity;BME280_pressure;Samples;Min_cycle;Max_cycle;Signal;HPM_P1;HPM_P2
2021/03/28 00:02:24;;;;;;;19.85;5.40;;;;;;;6.59;59.84;102604.59;4985756;28;20211;-72
2021/03/28 00:05:02;;;;;;;20.25;5.25;;;;;;;6.55;60.27;102593.44;4969725;28;20082;-74
2021/03/28 00:08:03;;;;;;;19.42;5.32;;;;;;;6.58;60.88;102590.69;4994695;28;20473;-73
2021/03/28 00:10:45;;;;;;;23.50;5.85;;;;;;;6.56;60.46;102589.91;4975756;28;20511;-74
2021/03/28 00:13:18;;;;;;;25.20;6.25;;;;;;;6.56;60.84;102591.69;4982136;28;20117;-73
2021/03/28 00:16:01;;;;;;;22.75;4.90;;;;;;;6.56;61.25;102589.06;4984912;28;20057;-75
2021/03/28 00:19:00;;;;;;;24.08;5.85;;;;;;;6.51;61.25;102576.28;4998166;28;20172;-74
2021/03/28 00:21:32;;;;;;;27.15;5.40;;;;;;;6.57;61.29;102590.78;4996847;28;20065;-74
2021/03/28 00:24:28;;;;;;;17.15;5.35;;;;;;;6.60;60.95;102595.81;4987626;28;20053;-75
2021/03/28 00:27:16;;;;;;;21.77;4.97;;;;;;;6.61;61.23;102595.75;4991871;28;20054;-74
2021/03/28 00:30:06;;;;;;;21.95;5.78;;;;;;;6.58;61.70;102579.41;4981912;28;20050;-74
2021/03/28 00:32:43;;;;;;;25.48;6.32;;;;;;;6.53;61.50;102570.06;4976552;28;20094;-75
2021/03/28 00:35:14;;;;;;;25.30;5.75;;;;;;;6.54;61.17;102570.91;4986333;28;20105;-74
2021/03/28 00:37:46;;;;;;;25.85;5.25;;;;;;;6.61;61.43;102581.88;4980526;28;20058;-73
2021/03/28 00:40:21;;;;;;;20.42;5.63;;;;;;;6.57;61.58;102575.13;4987914;28;20057;-72
2021/03/28 00:42:50;;;;;;;28.10;6.10;;;;;;;6.54;61.50;102573.50;4983774;28;20489;-75
2021/03/28 00:45:32;;;;;;;27.77;6.65;;;;;;;6.56;61.81;102573.44;4984723;28;20157;-75
2021/03/28 00:48:08;;;;;;;16.77;5.22;;;;;;;6.60;62.16;102577.56;4994861;28;20069;-75
2021/03/28 00:50:41;;;;;;;22.42;6.20;;;;;;;6.58;61.99;102572.44;4994255;28;20136;-76
2021/03/28 00:53:11;;;;;;;25.63;6.25;;;;;;;6.57;61.88;102568.16;5002595;28;20058;-74
2021/03/28 00:55:55;;;;;;;28.02;7.30;;;;;;;6.60;63.05;102565.38;4984251;28;20359;-75
2021/03/28 00:58:46;;;;;;;30.42;7.30;;;;;;;6.57;62.77;102572.53;4979117;28;20054;-74
2021/03/28 01:01:21;;;;;;;29.48;7.38;;;;;;;6.60;62.50;102562.75;4977417;28;20113;-74
2021/03/28 01:03:58;;;;;;;29.85;6.55;;;;;;;6.62;63.05;102563.53;4986953;28;20062;-75
2021/03/28 01:06:36;;;;;;;30.38;7.53;;;;;;;6.64;62.53;102566.06;4993246;28;20597;-75
2021/03/28 01:09:36;;;;;;;22.05;6.93;;;;;;;6.59;62.47;102553.25;4984294;28;20054;-76
2021/03/28 01:12:48;;;;;;;33.03;8.70;;;;;;;6.60;63.12;102556.72;4968966;28;20598;-74
2021/03/28 01:15:24;;;;;;;26.08;6.80;;;;;;;6.61;62.54;102564.47;4998252;28;20049;-75
2021/03/28 01:17:55;;;;;;;33.75;7.82;;;;;;;6.61;63.42;102561.03;4994057;28;20062;-73
2021/03/28 01:20:50;;;;;;;31.52;7.20;;;;;;;6.64;63.64;102556.47;5002178;28;20120;-73
2021/03/28 01:23:22;;;;;;;27.45;7.05;;;;;;;6.63;63.38;102559.19;4995859;28;20086;-73
2021/03/28 01:25:48;;;;;;;30.63;6.28;;;;;;;6.67;63.14;102552.88;4998924;28;20474;-73
2021/03/28 01:28:28;;;;;;;19.27;5.88;;;;;;;6.67;63.41;102553.72;4992784;28;20057;-73
2021/03/28 01:31:18;;;;;;;29.95;6.32;;;;;;;6.63;63.71;102546.13;5002823;28;20561;-73
2021/03/28 01:33:56;;;;;;;22.52;6.07;;;;;;;6.67;63.48;102545.88;4995216;28;20062;-73
2021/03/28 01:36:32;;;;;;;26.65;7.32;;;;;;;6.70;63.90;102543.13;4990077;28;20141;-73
2021/03/28 01:39:21;;;;;;;29.85;5.97;;;;;;;6.68;63.71;102549.34;4989338;28;20053;-73
2021/03/28 01:41:58;;;;;;;31.83;6.88;;;;;;;6.65;64.34;102545.13;4993442;28;20116;-74
2021/03/28 01:44:34;;;;;;;24.05;5.20;;;;;;;6.62;64.75;102542.66;4978117;28;20096;-74
2021/03/28 01:47:39;;;;;;;15.15;5.03;;;;;;;6.62;64.68;102539.22;4986643;28;20465;-75
2021/03/28 01:50:28;;;;;;;30.67;6.22;;;;;;;6.59;64.94;102548.06;4994599;28;20081;-74
2021/03/28 01:53:15;;;;;;;23.45;4.80;;;;;;;6.59;64.43;102536.78;4995915;28;20081;-73
2021/03/28 01:56:06;;;;;;;25.15;5.25;;;;;;;6.57;65.32;102536.03;4998036;28;20161;-74
2021/03/28 01:58:47;;;;;;;23.00;5.10;;;;;;;6.58;65.25;102538.53;4994173;28;20057;-74
2021/03/28 02:01:38;;;;;;;15.85;4.90;;;;;;;6.49;65.37;102521.59;5004388;28;20559;-74
2021/03/28 02:04:20;;;;;;;23.13;5.00;;;;;;;6.48;65.68;102525.13;5004490;28;20053;-74
2021/03/28 02:06:54;;;;;;;20.40;5.25;;;;;;;6.47;65.68;102530.44;5004188;28;20482;-74
2021/03/28 02:09:58;;;;;;;20.00;5.30;;;;;;;6.48;66.16;102534.72;4990199;28;20115;-74
2021/03/28 02:12:38;;;;;;;16.55;4.65;;;;;;;6.46;66.56;102531.34;4976650;28;20058;-73
2021/03/28 02:15:26;;;;;;;23.10;4.50;;;;;;;6.45;65.86;102535.72;5002073;28;20061;-74
2021/03/28 02:18:08;;;;;;;23.20;4.63;;;;;;;6.44;66.60;102523.59;4989514;28;20058;-74
2021/03/28 02:20:42;;;;;;;24.15;4.60;;;;;;;6.41;66.20;102526.38;5001624;28;20850;-74
2021/03/28 02:23:24;;;;;;;17.15;3.63;;;;;;;6.39;66.93;102516.91;4976671;28;20058;-74
2021/03/28 02:26:06;;;;;;;18.70;4.43;;;;;;;6.34;67.16;102520.59;4997919;28;20116;-74
2021/03/28 02:28:51;;;;;;;23.75;4.03;;;;;;;6.42;66.43;102512.41;4998501;28;20069;-75
2021/03/28 02:31:29;;;;;;;29.27;4.32;;;;;;;6.43;67.33;102516.72;4994951;28;20093;-74
2021/03/28 02:34:17;;;;;;;25.45;3.88;;;;;;;6.38;67.14;102513.47;5004765;28;20061;-74
2021/03/28 02:36:56;;;;;;;;;;;;;;;6.41;67.26;102534.19;4996298;28;20053;-74
2021/03/28 02:39:36;;;;;;;21.88;4.82;;;;;;;6.43;67.35;102521.06;4981936;28;19929;-74
2021/03/28 02:42:02;;;;;;;20.27;3.72;;;;;;;6.46;66.92;102523.50;4969923;28;20081;-74
2021/03/28 02:44:47;;;;;;;20.25;3.65;;;;;;;6.47;67.23;102520.84;4991712;28;20521;-74
2021/03/28 02:47:25;;;;;;;17.70;3.92;;;;;;;6.50;67.48;102531.09;4970260;28;20081;-74
2021/03/28 02:50:06;;;;;;;21.55;4.22;;;;;;;6.49;67.17;102525.97;5004631;28;20682;-74
2021/03/28 02:52:59;;;;;;;26.55;4.15;;;;;;;6.51;67.55;102530.19;4980673;28;20069;-74
2021/03/28 02:55:52;;;;;;;29.98;4.57;;;;;;;6.48;67.44;102525.13;4984054;28;20531;-74
2021/03/28 02:58:30;;;;;;;27.35;5.95;;;;;;;6.43;67.61;102521.91;5000820;28;20066;-74
2021/03/28 03:01:15;;;;;;;20.88;5.05;;;;;;;6.43;67.34;102521.91;5006402;28;20123;-74
2021/03/28 03:04:03;;;;;;;27.90;5.07;;;;;;;6.47;67.77;102522.63;4995031;28;20653;-74
2021/03/28 03:06:31;;;;;;;17.05;3.78;;;;;;;6.42;68.11;102514.16;4991643;28;20069;-73
2021/03/28 03:09:07;;;;;;;17.70;4.20;;;;;;;6.39;67.75;102519.53;4998384;28;20458;-72
2021/03/28 03:12:17;;;;;;;19.33;4.32;;;;;;;6.45;67.86;102512.25;4997857;28;20060;-72
2021/03/28 03:14:55;;;;;;;21.30;4.18;;;;;;;6.42;67.88;102515.00;4998838;28;20471;-72
2021/03/28 03:17:40;;;;;;;19.35;4.10;;;;;;;6.43;67.72;102518.44;5002156;28;20054;-72
2021/03/28 03:20:25;;;;;;;23.55;4.18;;;;;;;6.42;68.35;102514.16;4990465;28;20058;-72
2021/03/28 03:23:22;;;;;;;25.60;3.95;;;;;;;6.38;67.90;102513.47;5005568;28;20054;-72
2021/03/28 03:26:15;;;;;;;15.68;3.42;;;;;;;6.38;68.12;102521.28;4970247;28;20066;-72
2021/03/28 03:28:59;;;;;;;25.17;4.13;;;;;;;6.39;68.13;102519.53;4968210;28;20390;-72
2021/03/28 03:31:31;;;;;;;19.13;3.95;;;;;;;6.36;68.60;102523.13;4978691;28;20069;-72
2021/03/28 03:34:34;;;;;;;17.67;3.45;;;;;;;6.40;68.53;102524.66;5000255;28;20088;-72
2021/03/28 03:37:24;;;;;;;27.58;4.20;;;;;;;6.41;68.45;102525.50;4980372;28;20525;-72
2021/03/28 03:40:04;;;;;;;14.98;3.85;;;;;;;6.41;68.16;102521.16;5001869;28;20058;-73
2021/03/28 03:42:52;;;;;;;21.73;4.55;;;;;;;6.40;68.70;102516.84;5000249;28;20449;-73
2021/03/28 03:45:36;;;;;;;22.55;4.55;;;;;;;6.38;68.63;102525.66;5001228;28;20070;-73
2021/03/28 03:48:18;;;;;;;21.40;4.60;;;;;;;6.30;68.17;102518.25;4995976;28;20598;-73
2021/03/28 03:51:33;;;;;;;25.20;4.53;;;;;;;6.22;68.82;102508.19;4993983;28;20523;-73
2021/03/28 03:54:05;;;;;;;14.82;3.78;;;;;;;6.32;68.69;102524.22;4925332;28;20490;-73
2021/03/28 03:57:11;;;;;;;26.20;4.90;;;;;;;6.23;68.70;102522.91;4994786;28;20054;-73
2021/03/28 03:59:51;;;;;;;23.90;4.10;;;;;;;6.19;68.72;102516.16;4981200;28;20489;-73
2021/03/28 04:02:26;;;;;;;26.83;4.45;;;;;;;6.23;69.27;102527.28;4979748;28;20062;-73
2021/03/28 04:05:10;;;;;;;21.90;3.75;;;;;;;6.16;68.72;102528.50;4990638;28;20101;-73
2021/03/28 04:07:51;;;;;;;19.48;5.22;;;;;;;6.21;69.03;102531.72;4987785;28;20064;-73
2021/03/28 04:10:34;;;;;;;18.38;4.55;;;;;;;6.15;68.74;102530.25;5003802;28;20064;-72
2021/03/28 04:13:37;;;;;;;21.88;5.15;;;;;;;6.21;68.98;102540.38;4981202;28;20079;-73
2021/03/28 04:16:33;;;;;;;20.65;3.90;;;;;;;6.28;68.56;102533.13;4995591;28;20058;-73
2021/03/28 04:19:13;;;;;;;21.73;3.92;;;;;;;6.14;68.49;102515.56;5004725;28;20054;-73
2021/03/28 04:22:00;;;;;;;15.27;4.23;;;;;;;6.23;68.96;102522.06;4999217;28;20402;-73
2021/03/28 04:24:41;;;;;;;17.33;3.78;;;;;;;6.19;68.63;102523.13;5003950;28;20306;-73
2021/03/28 04:27:26;;;;;;;19.00;4.55;;;;;;;6.20;68.65;102517.03;4999586;28;20102;-73
2021/03/28 04:29:52;;;;;;;18.17;4.55;;;;;;;6.21;68.43;102506.50;4973402;28;20073;-73
2021/03/28 04:32:38;;;;;;;18.02;4.07;;;;;;;6.19;69.15;102510.94;5002534;28;20065;-73
2021/03/28 04:35:42;;;;;;;22.48;4.60;;;;;;;6.20;69.30;102510.03;4989492;28;20061;-73
2021/03/28 04:38:43;;;;;;;21.80;4.88;;;;;;;6.21;69.19;102506.50;4975972;28;20053;-73
2021/03/28 04:41:15;;;;;;;20.42;4.50;;;;;;;6.21;68.56;102509.09;4981761;28;20180;-73
2021/03/28 04:43:59;;;;;;;19.27;5.00;;;;;;;6.24;68.86;102506.34;4998705;28;20092;-74
2021/03/28 04:46:53;;;;;;;23.98;4.85;;;;;;;6.27;69.52;102494.94;4967289;28;20061;-73
2021/03/28 04:49:54;;;;;;;20.08;4.75;;;;;;;6.27;68.73;102506.22;5003986;28;20057;-73
2021/03/28 04:52:39;;;;;;;21.00;5.60;;;;;;;6.24;69.27;102498.53;5001961;28;20112;-73
2021/03/28 04:55:24;;;;;;;19.60;4.00;;;;;;;6.33;68.78;102507.63;4977605;28;20057;-73
2021/03/28 04:57:52;;;;;;;21.55;4.47;;;;;;;6.31;69.05;102507.75;4997586;28;20057;-73
2021/03/28 05:00:18;;;;;;;20.67;4.40;;;;;;;6.32;69.17;102505.97;5003917;28;20891;-73
2021/03/28 05:03:13;;;;;;;17.73;4.22;;;;;;;6.36;68.44;102506.66;4979607;28;20065;-73
2021/03/28 05:05:50;;;;;;;23.05;4.57;;;;;;;6.40;68.47;102503.81;5003723;28;20140;-73
2021/03/28 05:08:55;;;;;;;13.88;3.97;;;;;;;6.39;68.95;102501.28;4996985;28;20452;-73
2021/03/28 05:11:39;;;;;;;18.58;4.60;;;;;;;6.40;69.04;102495.16;4989142;28;20486;-73
2021/03/28 05:14:17;;;;;;;19.63;4.38;;;;;;;6.39;68.65;102512.56;4997513;28;20062;-73
2021/03/28 05:17:02;;;;;;;19.75;4.00;;;;;;;6.38;68.70;102497.00;4992401;28;20062;-73
2021/03/28 05:20:22;;;;;;;27.83;4.13;;;;;;;6.41;69.21;102502.03;4986277;28;20065;-72
2021/03/28 05:23:24;;;;;;;26.98;5.43;;;;;;;6.41;69.21;102505.50;4915951;29;20483;-74
2021/03/28 05:26:00;;;;;;;14.52;3.70;;;;;;;6.45;69.12;102514.00;5001698;28;20147;-72
2021/03/28 05:29:08;;;;;;;21.77;4.32;;;;;;;6.47;68.68;102513.03;5008228;28;20070;-74
2021/03/28 05:32:19;;;;;;;23.90;5.35;;;;;;;6.52;69.10;102508.41;4996260;28;20065;-74
2021/03/28 05:35:08;;;;;;;14.70;4.20;;;;;;;6.53;68.64;102504.88;4988668;28;20160;-72
2021/03/28 05:37:39;;;;;;;18.55;5.00;;;;;;;6.61;68.83;102499.28;4990108;28;20402;-74
2021/03/28 05:40:21;;;;;;;18.70;3.80;;;;;;;6.63;68.16;102492.22;4997195;28;20116;-72
2021/03/28 05:43:32;;;;;;;20.15;4.10;;;;;;;6.64;68.43;102485.22;5006955;28;20100;-71
2021/03/28 05:46:30;;;;;;;25.73;4.85;;;;;;;6.72;68.52;102490.88;5001322;28;20088;-72
2021/03/28 05:49:13;;;;;;;16.13;3.65;;;;;;;6.75;68.04;102492.50;4939420;28;20132;-73
2021/03/28 05:51:58;;;;;;;17.45;4.35;;;;;;;6.80;68.48;102490.47;4985075;28;20157;-72
2021/03/28 05:54:58;;;;;;;16.55;3.40;;;;;;;6.83;68.20;102483.34;4985616;28;20050;-73
2021/03/28 05:57:52;;;;;;;24.20;4.30;;;;;;;6.85;67.86;102484.09;5001150;28;20054;-72
2021/03/28 06:00:42;;;;;;;17.52;3.55;;;;;;;6.91;68.57;102490.75;5002785;28;20453;-73
2021/03/28 06:03:17;;;;;;;23.20;4.68;;;;;;;6.95;67.91;102486.22;4995208;28;20053;-73
2021/03/28 06:06:20;;;;;;;22.27;4.25;;;;;;;6.99;67.71;102491.19;5000700;28;20057;-73
2021/03/28 06:09:12;;;;;;;25.27;3.88;;;;;;;7.00;68.50;102476.38;4995198;28;20116;-73
2021/03/28 06:11:56;;;;;;;14.02;3.28;;;;;;;7.09;67.65;102484.53;5005108;28;20603;-73
2021/03/28 06:14:36;;;;;;;19.00;3.58;;;;;;;7.16;67.20;102492.06;5000622;28;20062;-73
2021/03/28 06:17:25;;;;;;;18.38;3.92;;;;;;;7.18;67.72;102485.81;5007773;28;20053;-73
2021/03/28 06:20:02;;;;;;;14.52;3.65;;;;;;;7.20;67.23;102485.75;4977663;28;20120;-73
2021/03/28 06:22:44;;;;;;;18.75;4.70;;;;;;;7.23;67.67;102488.16;4982312;28;20475;-72
2021/03/28 06:25:37;;;;;;;17.08;3.85;;;;;;;7.28;67.14;102494.84;4982222;28;20070;-73
2021/03/28 06:28:45;;;;;;;18.02;3.42;;;;;;;7.37;66.70;102497.84;4975620;28;20058;-72
2021/03/28 06:31:33;;;;;;;20.50;3.75;;;;;;;7.39;66.49;102493.41;4973335;28;20484;-72
2021/03/28 06:34:25;;;;;;;23.85;4.05;;;;;;;7.47;66.77;102486.00;4979862;28;20057;-72
2021/03/28 06:36:51;;;;;;;21.52;2.88;;;;;;;7.47;66.46;102488.63;4965864;28;20062;-73
2021/03/28 06:39:46;;;;;;;14.60;3.17;;;;;;;7.54;65.94;102489.94;4976272;28;20532;-73
2021/03/28 06:42:47;;;;;;;22.08;3.80;;;;;;;7.63;65.92;102497.25;4991400;28;20076;-73
2021/03/28 06:45:41;;;;;;;16.38;3.35;;;;;;;7.64;65.76;102504.16;4975959;28;20068;-74
2021/03/28 06:48:19;;;;;;;17.20;4.05;;;;;;;7.67;65.54;102503.16;4986202;28;20390;-72
2021/03/28 06:51:22;;;;;;;17.48;4.22;;;;;;;7.73;66.19;102501.03;5004330;28;20149;-73
2021/03/28 06:54:16;;;;;;;16.88;3.67;;;;;;;7.78;65.74;102507.75;4990662;28;22205;-73
2021/03/28 06:56:48;;;;;;;20.85;4.60;;;;;;;7.73;65.96;102508.88;5000935;28;20069;-73
2021/03/28 06:59:33;;;;;;;16.17;3.60;;;;;;;7.71;65.96;102509.91;4982501;28;20108;-72
2021/03/28 07:02:14;;;;;;;20.55;4.68;;;;;;;7.73;65.57;102501.03;4996663;28;20054;-73
2021/03/28 07:05:08;;;;;;;16.08;3.85;;;;;;;7.78;66.09;102507.75;4997116;28;20049;-73
2021/03/28 07:07:49;;;;;;;19.77;4.70;;;;;;;7.80;65.52;102514.59;5005513;28;20066;-74
2021/03/28 07:10:34;;;;;;;14.98;4.05;;;;;;;7.84;65.41;102513.50;4999528;28;20135;-73
2021/03/28 07:13:32;;;;;;;17.77;3.58;;;;;;;7.92;65.27;102520.91;5000067;28;20111;-74
2021/03/28 07:16:20;;;;;;;13.88;3.80;;;;;;;7.95;65.22;102519.88;4992978;28;20456;-74
2021/03/28 07:19:04;;;;;;;12.63;3.55;;;;;;;8.05;65.80;102519.25;5005614;28;20382;-74
2021/03/28 07:22:02;;;;;;;15.93;3.97;;;;;;;8.08;65.52;102510.41;5000966;28;20551;-73
2021/03/28 07:25:05;;;;;;;20.23;4.72;;;;;;;8.12;65.15;102517.97;4993218;28;20065;-73
2021/03/28 07:27:50;;;;;;;17.40;3.90;;;;;;;8.13;65.42;102508.34;4999283;28;20142;-73
2021/03/28 07:30:54;;;;;;;23.23;5.70;;;;;;;8.21;65.07;102505.28;4981967;28;20058;-73
2021/03/28 07:33:49;;;;;;;20.00;4.78;;;;;;;8.22;65.17;102520.06;4972806;28;20058;-73
2021/03/28 07:36:39;;;;;;;12.30;4.22;;;;;;;8.31;65.09;102509.03;5000587;28;20148;-73
2021/03/28 07:39:31;;;;;;;14.98;3.75;;;;;;;8.37;64.77;102518.31;4998612;28;20453;-73
2021/03/28 07:42:11;;;;;;;14.55;3.92;;;;;;;8.40;64.75;102513.75;5000195;28;20398;-73
2021/03/28 07:44:52;;;;;;;17.77;4.47;;;;;;;8.51;64.98;102505.31;4994774;28;20486;-72
2021/03/28 07:47:30;;;;;;;17.77;3.80;;;;;;;8.57;64.85;102504.94;4981185;28;20061;-72
2021/03/28 07:50:33;;;;;;;18.83;4.50;;;;;;;8.68;64.70;102518.22;4998654;28;20056;-72
2021/03/28 07:53:26;;;;;;;13.15;3.78;;;;;;;8.76;64.29;102516.91;5002859;28;20062;-74
2021/03/28 07:56:14;;;;;;;20.33;4.28;;;;;;;8.85;64.01;102501.47;4992008;28;20054;-73
2021/03/28 07:58:49;;;;;;;20.63;5.05;;;;;;;8.99;63.95;102502.41;4998690;28;20061;-72
2021/03/28 08:01:24;;;;;;;20.27;5.88;;;;;;;8.98;63.76;102514.66;4995978;28;20383;-73
2021/03/28 08:03:56;;;;;;;27.33;5.60;;;;;;;9.03;64.21;102507.34;5002189;28;20046;-72
2021/03/28 08:06:40;;;;;;;23.73;4.90;;;;;;;9.07;64.21;102518.47;4991969;28;20672;-73
2021/03/28 08:09:13;;;;;;;17.95;4.78;;;;;;;9.02;64.12;102513.53;5004026;28;20539;-73
2021/03/28 08:12:01;;;;;;;28.15;5.15;;;;;;;9.11;64.15;102509.50;4970446;28;20066;-72
2021/03/28 08:14:56;;;;;;;18.67;5.00;;;;;;;9.13;63.85;102514.66;5004247;28;20104;-72
2021/03/28 08:17:42;;;;;;;19.08;4.57;;;;;;;9.18;63.68;102505.56;4996974;28;20141;-73
2021/03/28 08:20:31;;;;;;;15.63;4.57;;;;;;;9.22;63.85;102506.22;4999197;28;20062;-72
2021/03/28 08:23:26;;;;;;;25.40;5.22;;;;;;;9.33;64.24;102500.28;4986739;28;20139;-72
2021/03/28 08:26:17;;;;;;;19.55;4.90;;;;;;;9.35;63.66;102499.28;5001180;28;20164;-72
2021/03/28 08:29:07;;;;;;;18.50;4.28;;;;;;;9.42;63.45;102500.56;4999569;28;20068;-73
2021/03/28 08:31:49;;;;;;;20.05;5.57;;;;;;;9.42;63.54;102497.09;5004742;28;20433;-72
2021/03/28 08:34:46;;;;;;;19.48;4.43;;;;;;;9.52;63.22;102508.66;4984650;28;20061;-72
2021/03/28 08:37:39;;;;;;;22.05;5.47;;;;;;;9.62;63.63;102503.69;4995234;28;20061;-72
2021/03/28 08:40:22;;;;;;;17.13;4.45;;;;;;;9.76;63.30;102514.13;4995196;28;20124;-72
2021/03/28 08:43:12;;;;;;;20.67;4.75;;;;;;;9.83;62.47;102497.03;4985261;28;20054;-73
2021/03/28 08:46:22;;;;;;;19.95;4.18;;;;;;;9.98;62.09;102504.84;4992813;28;20144;-73
2021/03/28 08:49:14;;;;;;;20.38;5.03;;;;;;;10.19;62.24;102498.19;4979356;28;20067;-74
2021/03/28 08:52:10;;;;;;;20.98;4.60;;;;;;;10.44;61.20;102504.41;4990681;28;20736;-74
2021/03/28 08:55:01;;;;;;;22.80;4.25;;;;;;;10.54;60.08;102499.38;4993859;28;20137;-74
2021/03/28 08:57:42;;;;;;;25.05;5.20;;;;;;;10.64;60.49;102503.91;4985339;28;20050;-74
2021/03/28 09:00:16;;;;;;;19.85;5.22;;;;;;;10.74;59.62;102490.13;5003435;28;20443;-74
2021/03/28 09:03:07;;;;;;;21.45;4.38;;;;;;;10.78;59.10;102502.09;4999576;28;20061;-73
2021/03/28 09:05:43;;;;;;;19.08;4.40;;;;;;;10.84;59.14;102478.91;5005104;28;20070;-72
2021/03/28 09:08:31;;;;;;;18.77;4.00;;;;;;;10.88;58.88;102495.28;4995349;28;20080;-73
2021/03/28 09:11:31;;;;;;;20.80;4.68;;;;;;;10.92;58.49;102488.84;5001866;28;20054;-72
2021/03/28 09:14:17;;;;;;;19.58;3.97;;;;;;;10.97;57.88;102486.72;4990901;28;20141;-72
2021/03/28 09:17:07;;;;;;;23.10;5.10;;;;;;;10.97;57.20;102476.22;4991302;28;20061;-72
2021/03/28 09:20:07;;;;;;;18.27;4.32;;;;;;;11.20;57.75;102455.38;4969157;28;20093;-72
2021/03/28 09:22:58;;;;;;;16.85;4.45;;;;;;;11.39;57.41;102463.59;5004048;28;20057;-72
2021/03/28 09:25:57;;;;;;;20.95;3.90;;;;;;;11.56;55.91;102470.25;5001181;28;20054;-71
2021/03/28 09:28:44;;;;;;;24.33;3.67;;;;;;;11.75;55.59;102484.69;5008406;28;20062;-72
2021/03/28 09:31:26;;;;;;;20.80;3.58;;;;;;;11.73;55.80;102487.41;5002244;28;20053;-72
2021/03/28 09:34:01;;;;;;;16.25;3.53;;;;;;;11.75;55.56;102475.00;4989254;28;20050;-72
2021/03/28 09:36:56;;;;;;;19.50;4.07;;;;;;;12.00;55.35;102492.44;4987063;28;20058;-72
2021/03/28 09:39:48;;;;;;;30.30;5.63;;;;;;;12.14;55.05;102486.16;4992421;28;20133;-72
2021/03/28 09:42:29;;;;;;;20.45;4.47;;;;;;;11.95;54.58;102478.78;4997343;28;20108;-73
2021/03/28 09:45:14;;;;;;;36.97;4.82;;;;;;;11.75;54.12;102495.19;5004950;28;20068;-73
2021/03/28 09:48:09;;;;;;;17.52;4.57;;;;;;;11.79;54.19;102475.59;4975513;28;20068;-73
2021/03/28 09:51:06;;;;;;;17.73;3.70;;;;;;;11.78;54.70;102476.53;4967570;28;20066;-73
2021/03/28 09:54:04;;;;;;;17.73;4.40;;;;;;;11.83;53.05;102485.78;4969935;28;20155;-73
2021/03/28 09:56:42;;;;;;;24.83;4.28;;;;;;;11.95;52.79;102477.97;4981005;28;20057;-73
2021/03/28 09:59:25;;;;;;;17.77;3.88;;;;;;;12.20;51.40;102484.84;5000146;28;20093;-72
2021/03/28 10:02:28;;;;;;;11.88;2.95;;;;;;;12.12;52.01;102487.22;4985208;28;20057;-73
2021/03/28 10:05:13;;;;;;;13.32;2.80;;;;;;;12.03;51.75;102500.09;4982890;28;20061;-73
2021/03/28 10:07:48;;;;;;;15.73;3.33;;;;;;;11.87;51.77;102497.72;4989641;28;20667;-74
2021/03/28 10:10:29;;;;;;;19.33;4.07;;;;;;;11.90;51.74;102493.22;4993588;28;20999;-73
2021/03/28 10:13:13;;;;;;;19.70;3.20;;;;;;;11.84;52.10;102487.47;5002408;28;20105;-73
2021/03/28 10:15:56;;;;;;;20.38;3.55;;;;;;;11.98;51.01;102491.72;4977680;28;20108;-73
2021/03/28 10:18:28;;;;;;;21.10;3.55;;;;;;;12.07;51.30;102487.56;4991648;28;20058;-73
2021/03/28 10:21:07;;;;;;;14.10;3.40;;;;;;;12.11;49.91;102477.66;4989471;28;20061;-73
2021/03/28 10:23:36;;;;;;;12.88;3.00;;;;;;;12.21;48.82;102487.38;4986570;28;20508;-74
2021/03/28 10:26:48;;;;;;;16.20;2.70;;;;;;;12.25;47.32;102490.56;4993993;28;20054;-72
2021/03/28 10:29:43;;;;;;;13.30;2.90;;;;;;;12.25;47.37;102485.31;4997636;28;20133;-72
2021/03/28 10:32:49;;;;;;;17.60;2.80;;;;;;;12.37;47.84;102487.03;4979117;28;20090;-73
2021/03/28 10:35:24;;;;;;;13.43;3.00;;;;;;;12.51;47.21;102507.03;4989645;28;20104;-73
2021/03/28 10:38:28;;;;;;;14.27;3.00;;;;;;;12.57;47.11;102490.75;4981558;28;20058;-74
2021/03/28 10:41:30;;;;;;;16.13;2.65;;;;;;;12.64;46.16;102486.72;4975853;28;20058;-74
2021/03/28 10:44:19;;;;;;;13.82;2.35;;;;;;;12.83;45.97;102501.06;4992062;28;20058;-74
2021/03/28 10:47:17;;;;;;;15.23;2.63;;;;;;;12.72;45.35;102504.53;4976098;28;20116;-72
2021/03/28 10:50:05;;;;;;;12.90;2.43;;;;;;;12.68;45.60;102496.97;4995521;28;20586;-73
2021/03/28 10:53:17;;;;;;;19.30;3.10;;;;;;;12.45;45.43;102507.50;5005137;28;20532;-73
2021/03/28 10:55:56;;;;;;;15.57;3.30;;;;;;;12.41;46.30;102503.44;4987091;28;20069;-75
2021/03/28 10:58:49;;;;;;;13.13;2.92;;;;;;;12.24;47.76;102505.53;5001366;28;20069;-75
2021/03/28 11:02:10;;;;;;;12.18;3.13;;;;;;;12.31;47.57;102515.59;4991009;28;20774;-74
2021/03/28 11:04:46;;;;;;;15.52;3.13;;;;;;;12.25;47.63;102509.00;4969198;28;20058;-74
2021/03/28 11:07:30;;;;;;;18.85;3.58;;;;;;;12.16;48.22;102510.53;4999330;28;20054;-73
2021/03/28 11:09:59;;;;;;;14.15;2.95;;;;;;;12.12;49.17;102516.16;4983896;28;20053;-74
2021/03/28 11:13:00;;;;;;;14.30;2.92;;;;;;;12.07;49.19;102529.63;4973147;28;20062;-74
2021/03/28 11:15:40;;;;;;;13.43;3.33;;;;;;;11.86;49.08;102511.84;4999211;28;20557;-73
2021/03/28 11:18:27;;;;;;;17.98;3.20;;;;;;;12.08;50.25;102520.81;4989934;28;20053;-73
2021/03/28 11:20:56;;;;;;;12.27;2.90;;;;;;;12.08;49.56;102528.69;4984687;28;20058;-75
2021/03/28 11:23:44;;;;;;;15.52;2.65;;;;;;;12.07;50.79;102525.25;4986802;28;20611;-74
2021/03/28 11:26:31;;;;;;;17.88;3.33;;;;;;;12.02;50.31;102545.78;5001573;28;20156;-72
2021/03/28 11:29:29;;;;;;;17.92;3.00;;;;;;;11.92;50.71;102530.78;4996488;28;20062;-72
2021/03/28 11:32:18;;;;;;;19.75;2.95;;;;;;;11.97;52.23;102540.00;4996716;28;20081;-72
2021/03/28 11:35:23;;;;;;;18.42;3.30;;;;;;;11.89;52.55;102531.84;4996950;28;20128;-72
2021/03/28 11:38:14;;;;;;;12.90;2.65;;;;;;;11.79;52.51;102522.94;5000020;28;20053;-73
2021/03/28 11:40:42;;;;;;;18.95;2.97;;;;;;;11.64;52.47;102538.03;4969453;28;20454;-74
2021/03/28 11:43:11;;;;;;;16.98;2.97;;;;;;;11.60;52.86;102547.09;5003715;28;20061;-73
2021/03/28 11:45:37;;;;;;;8.32;2.40;;;;;;;11.71;53.97;102548.94;4997110;28;20058;-71
2021/03/28 11:48:26;;;;;;;15.35;3.08;;;;;;;11.66;53.99;102541.38;5001864;28;20063;-72
2021/03/28 11:50:56;;;;;;;17.02;3.15;;;;;;;11.65;54.25;102545.81;4995408;28;20069;-74
2021/03/28 11:53:22;;;;;;;17.65;3.05;;;;;;;11.55;54.05;102534.28;4980881;28;20065;-72
2021/03/28 11:55:51;;;;;;;13.50;2.95;;;;;;;11.60;53.92;102534.81;4995603;28;20068;-73
2021/03/28 11:58:26;;;;;;;15.70;2.70;;;;;;;11.51;53.04;102529.38;4998786;28;20066;-75
2021/03/28 12:00:55;;;;;;;13.35;2.88;;;;;;;11.66;53.15;102525.59;5004222;28;20508;-75
2021/03/28 12:03:21;;;;;;;11.27;3.13;;;;;;;11.64;53.35;102524.88;4997633;28;20065;-73
2021/03/28 12:06:10;;;;;;;14.02;3.47;;;;;;;11.75;53.76;102514.44;4989734;28;20049;-73
2021/03/28 12:08:46;;;;;;;19.50;3.55;;;;;;;11.87;53.27;102518.78;4976847;28;20061;-74
2021/03/28 12:11:30;;;;;;;16.30;2.92;;;;;;;11.84;52.20;102568.13;4973317;28;20493;-74
2021/03/28 12:14:21;;;;;;;16.85;4.13;;;;;;;11.75;52.16;102532.00;4977775;28;20701;-75
2021/03/28 12:17:06;;;;;;;22.08;3.58;;;;;;;11.80;52.31;102533.34;4975808;28;20062;-75
2021/03/28 12:19:42;;;;;;;13.85;3.28;;;;;;;11.90;53.12;102532.66;4995234;28;20147;-74
2021/03/28 12:22:27;;;;;;;19.90;3.92;;;;;;;11.83;52.30;102535.72;5000965;28;20074;-72
2021/03/28 12:25:05;;;;;;;21.13;4.47;;;;;;;11.86;52.48;102527.63;4998103;28;20053;-72
2021/03/28 12:27:57;;;;;;;23.15;4.95;;;;;;;11.85;52.15;102520.69;4992248;28;20533;-73
2021/03/28 12:30:29;;;;;;;19.08;4.60;;;;;;;11.74;52.61;102527.66;4981711;28;20497;-74
2021/03/28 12:32:59;;;;;;;16.23;3.90;;;;;;;11.69;53.00;102522.75;4981543;28;20149;-75
2021/03/28 12:35:45;;;;;;;23.73;4.93;;;;;;;11.70;52.70;102524.44;4980490;28;20061;-75
2021/03/28 12:38:53;;;;;;;16.20;4.38;;;;;;;11.64;52.82;102535.38;4980442;28;20406;-73
2021/03/28 12:41:27;;;;;;;17.38;4.38;;;;;;;11.63;53.14;102539.81;4958126;28;20065;-70
2021/03/28 12:44:05;;;;;;;12.95;4.28;;;;;;;11.58;53.12;102530.59;4976413;28;20573;-71
2021/03/28 12:46:31;;;;;;;14.48;3.95;;;;;;;11.63;53.02;102533.72;4986353;28;20360;-73
2021/03/28 12:49:09;;;;;;;23.50;4.50;;;;;;;11.66;53.00;102515.09;4995607;28;20493;-73